Time;durP1;ratioP1;P1;durP2;ratioP2;P2;SDS_P1;SDS_P2;PMS_P1;PMS_P2;Temp;Humidity;BMP_temperature;BMP_pressure;BME280_temperature;BME280_humidity;BME280_pressure;Samples;Min_cycle;Max_cycle;Signal;HPM_P1;HPM_P2
2022/03/13 00:02:45;;;;;;;133.40;62.80;;;;;;;-4.23;63.38;101014.84;214122;1274;140660;-72
2022/03/13 00:07:51;;;;;;;113.40;52.50;;;;;;;-4.24;63.51;101018.38;213293;1274;142901;-70
2022/03/13 00:12:55;;;;;;;128.90;58.40;;;;;;;-4.32;63.54;101020.04;214157;1274;143272;-72
2022/03/13 00:18:01;;;;;;;121.20;57.50;;;;;;;-4.42;63.65;101015.70;214362;1274;140457;-72
2022/03/13 00:23:06;;;;;;;112.50;55.30;;;;;;;-4.48;63.44;101009.48;213367;1274;140470;-71
2022/03/13 00:28:12;;;;;;;135.80;61.50;;;;;;;-4.55;63.58;101011.04;214897;1274;142933;-70
2022/03/13 00:33:17;;;;;;;137.90;60.40;;;;;;;-4.62;63.99;101009.93;213402;1274;144050;-72
2022/03/13 00:38:25;;;;;;;116.40;53.60;;;;;;;-4.66;64.06;101002.96;214223;1273;141943;-72
2022/03/13 00:43:29;;;;;;;151.50;70.70;;;;;;;-4.68;64.31;100996.70;213830;1274;142074;-71
2022/03/13 00:48:32;;;;;;;143.80;64.70;;;;;;;-4.71;64.86;100991.19;213603;1274;142103;-67
2022/03/13 00:53:38;;;;;;;147.30;66.70;;;;;;;-4.75;65.04;100983.82;214526;1274;142224;-71
2022/03/13 00:58:43;;;;;;;159.60;63.80;;;;;;;-4.74;65.11;100983.23;215158;1274;142214;-70
2022/03/13 01:03:51;;;;;;;140.40;58.50;;;;;;;-4.75;64.98;100979.80;214949;1273;141818;-72
2022/03/13 01:08:58;;;;;;;178.60;74.50;;;;;;;-4.72;65.08;100975.63;215547;1274;142449;-71
2022/03/13 01:14:02;;;;;;;119.80;55.30;;;;;;;-4.70;65.31;100973.58;215428;1274;141378;-72
2022/03/13 01:19:08;;;;;;;112.70;47.60;;;;;;;-4.64;65.22;100979.59;216001;1274;141671;-71
2022/03/13 01:24:15;;;;;;;132.60;56.00;;;;;;;-4.63;65.35;100984.54;215508;1274;142860;-71
2022/03/13 01:29:20;;;;;;;107.40;45.50;;;;;;;-4.61;65.20;100986.97;215477;1274;142014;-71
2022/03/13 01:34:37;;;;;;;119.50;52.10;;;;;;;-4.69;65.33;100981.70;215639;1275;140730;-70
2022/03/13 01:39:42;;;;;;;114.70;47.70;;;;;;;-4.77;65.55;100974.44;214956;1274;141538;-66
2022/03/13 01:44:46;;;;;;;140.60;55.70;;;;;;;-4.83;65.57;100976.37;214379;1274;140269;-71
2022/03/13 01:49:51;;;;;;;133.00;51.60;;;;;;;-4.86;65.74;100978.99;213402;1274;141202;-70
2022/03/13 01:54:58;;;;;;;113.50;51.30;;;;;;;-4.87;65.89;100978.04;215048;1274;140967;-71
2022/03/13 02:00:07;;;;;;;116.20;50.30;;;;;;;-4.91;66.14;100978.70;214588;1274;140823;-72
2022/03/13 02:05:33;;;;;;;103.40;48.80;;;;;;;-4.95;66.31;100973.41;213708;1274;140997;-71
2022/03/13 02:10:37;;;;;;;100.30;44.20;;;;;;;-5.00;66.31;100969.48;213685;1274;140272;-72
2022/03/13 02:15:41;;;;;;;96.60;46.30;;;;;;;-5.07;66.56;100961.95;213782;1274;141404;-72
2022/03/13 02:20:46;;;;;;;111.30;48.20;;;;;;;-5.12;66.65;100962.77;214021;1274;140616;-72
2022/03/13 02:25:57;;;;;;;101.60;43.50;;;;;;;-5.14;66.59;100965.70;214235;1273;142576;-72
2022/03/13 02:31:11;;;;;;;113.80;49.60;;;;;;;-5.15;66.56;100968.02;213898;1274;538397;-71
2022/03/13 02:36:32;;;;;;;100.20;45.80;;;;;;;-5.15;66.60;100966.59;213253;1274;140310;-71
2022/03/13 02:41:40;;;;;;;96.40;42.70;;;;;;;-5.19;66.96;100962.02;213298;1274;141526;-71
2022/03/13 02:47:04;;;;;;;;;;;;;;;-5.21;66.82;100960.32;214119;1274;139938;-71
2022/03/13 02:52:09;;;;;;;102.00;46.40;;;;;;;-5.27;67.20;100964.34;215319;1274;126266;-71
2022/03/13 02:57:15;;;;;;;115.20;45.30;;;;;;;-5.31;67.30;100970.69;215409;1273;142336;-71
2022/03/13 03:02:19;;;;;;;110.10;50.40;;;;;;;-5.35;67.39;100971.44;213639;1274;140797;-72
2022/03/13 03:07:23;;;;;;;97.80;43.60;;;;;;;-5.38;67.52;100974.95;214831;1273;141094;-72
2022/03/13 03:12:29;;;;;;;97.90;45.70;;;;;;;-5.38;67.44;100977.21;212980;1275;141810;-69
2022/03/13 03:17:33;;;;;;;88.50;41.90;;;;;;;-5.42;67.52;100977.50;213507;1274;141739;-72
2022/03/13 03:22:37;;;;;;;103.50;49.00;;;;;;;-5.49;67.52;100975.83;214218;1273;142588;-70
2022/03/13 03:27:41;;;;;;;113.40;43.80;;;;;;;-5.50;67.62;100974.54;214949;1274;141967;-70
2022/03/13 03:32:46;;;;;;;100.90;48.00;;;;;;;-5.51;67.61;100973.77;215725;1274;142015;-70
2022/03/13 03:37:53;;;;;;;97.20;47.00;;;;;;;-5.52;67.70;100972.29;214543;1274;141767;-70
2022/03/13 03:43:02;;;;;;;137.80;58.10;;;;;;;-5.49;67.52;100975.64;214422;1273;141932;-70
2022/03/13 03:48:07;;;;;;;121.00;52.60;;;;;;;-5.38;67.54;100970.64;213869;1274;154103;-70
2022/03/13 03:53:11;;;;;;;110.20;56.70;;;;;;;-5.31;67.64;100964.81;214412;1274;140675;-70
2022/03/13 03:58:19;;;;;;;131.50;63.70;;;;;;;-5.25;67.88;100958.30;214035;1274;141524;-64
2022/03/13 04:03:23;;;;;;;122.20;58.20;;;;;;;-5.19;67.63;100959.47;213993;1273;141113;-65
2022/03/13 04:08:29;;;;;;;133.00;61.00;;;;;;;-5.19;67.64;100955.08;214393;1274;142598;-73
2022/03/13 04:13:38;;;;;;;96.10;47.50;;;;;;;-5.21;67.47;100953.16;213434;1274;141058;-72
2022/03/13 04:18:47;;;;;;;109.20;46.10;;;;;;;-5.29;67.70;100950.62;213446;1274;142975;-71
2022/03/13 04:23:53;;;;;;;124.90;59.70;;;;;;;-5.37;67.81;100948.88;213553;1274;142072;-71
2022/03/13 04:28:58;;;;;;;86.60;45.00;;;;;;;-5.40;67.86;100946.67;213684;1274;143011;-70
2022/03/13 04:34:03;;;;;;;118.40;55.50;;;;;;;-5.43;68.12;100955.02;213812;1274;141390;-69
2022/03/13 04:39:08;;;;;;;93.00;44.80;;;;;;;-5.44;67.83;100957.02;213475;1274;140627;-69
2022/03/13 04:44:14;;;;;;;149.50;63.50;;;;;;;-5.47;68.04;100959.94;213380;1274;142236;-70
2022/03/13 04:49:18;;;;;;;111.10;52.30;;;;;;;-5.49;68.14;100958.17;213481;1274;166900;-68
2022/03/13 04:54:23;;;;;;;152.60;61.90;;;;;;;-5.55;68.26;100955.98;213698;1274;141400;-68
2022/03/13 04:59:28;;;;;;;132.40;56.40;;;;;;;-5.62;68.35;100950.27;213462;1274;143711;-69
2022/03/13 05:04:34;;;;;;;86.90;40.60;;;;;;;-5.66;68.49;100954.18;214216;1274;142260;-69
2022/03/13 05:09:39;;;;;;;126.50;53.00;;;;;;;-5.69;68.61;100953.16;214195;1274;140213;-71
2022/03/13 05:14:44;;;;;;;129.10;57.30;;;;;;;-5.62;68.51;100950.59;213268;1274;140759;-70
2022/03/13 05:19:49;;;;;;;128.70;59.30;;;;;;;-5.50;68.73;100952.92;215212;1274;142516;-71
2022/03/13 05:24:54;;;;;;;111.30;58.90;;;;;;;-5.42;68.77;100960.15;215925;1274;154254;-71
2022/03/13 05:29:59;;;;;;;85.00;39.50;;;;;;;-5.31;68.74;100960.13;215699;1274;141391;-72
2022/03/13 05:35:06;;;;;;;98.50;47.10;;;;;;;-5.22;68.96;100962.58;215476;1274;140640;-70
2022/03/13 05:40:14;;;;;;;89.10;45.10;;;;;;;-5.13;68.97;100967.86;215738;1274;141619;-71
2022/03/13 05:45:20;;;;;;;94.50;43.80;;;;;;;-5.01;68.65;100970.21;216001;1274;141156;-71
2022/03/13 05:50:27;;;;;;;107.20;49.30;;;;;;;-4.90;68.98;100970.80;215639;1274;141127;-71
2022/03/13 05:55:31;;;;;;;101.70;48.40;;;;;;;-4.77;69.02;100976.48;215627;1274;141594;-72
2022/03/13 06:00:36;;;;;;;88.10;43.80;;;;;;;-4.64;69.09;100983.73;213093;1274;142574;-71
2022/03/13 06:05:42;;;;;;;104.60;45.90;;;;;;;-4.50;69.02;100980.46;214027;1274;141009;-72
2022/03/13 06:10:46;;;;;;;97.20;47.30;;;;;;;-4.36;68.93;100976.94;214328;1274;140467;-71
2022/03/13 06:15:50;;;;;;;85.80;42.30;;;;;;;-4.21;69.14;100975.27;213997;1274;140965;-71
2022/03/13 06:20:55;;;;;;;118.90;50.40;;;;;;;-4.03;68.96;100977.45;214253;1274;140471;-72
2022/03/13 06:26:00;;;;;;;95.80;48.30;;;;;;;-3.75;68.75;100970.58;214213;1274;151933;-71
2022/03/13 06:31:04;;;;;;;133.10;61.60;;;;;;;-3.46;68.40;100979.14;213399;1275;141173;-71
2022/03/13 06:36:10;;;;;;;127.80;60.50;;;;;;;-3.19;68.51;100983.55;213287;1274;140010;-70
2022/03/13 06:41:18;;;;;;;173.50;71.40;;;;;;;-2.96;68.37;100982.80;213805;1274;141922;-69
2022/03/13 06:46:23;;;;;;;146.80;63.10;;;;;;;-2.72;67.85;100986.38;213064;1274;140845;-76
2022/03/13 06:51:27;;;;;;;151.00;60.80;;;;;;;-2.51;67.62;100991.48;213486;1274;140566;-72
2022/03/13 06:56:33;;;;;;;123.80;58.90;;;;;;;-2.26;67.50;100997.02;213898;1274;142393;-69
2022/03/13 07:01:37;;;;;;;83.90;39.70;;;;;;;-1.85;67.05;101004.37;214063;1274;142083;-70
2022/03/13 07:06:42;;;;;;;91.30;47.80;;;;;;;-1.17;67.09;101000.30;212866;1274;140309;-66
2022/03/13 07:11:47;;;;;;;63.20;33.80;;;;;;;-0.65;66.61;101005.12;214186;1273;140442;-69
2022/03/13 07:16:51;;;;;;;84.40;43.40;;;;;;;0.15;66.23;101001.38;213491;1274;140286;-70
2022/03/13 07:21:55;;;;;;;80.00;41.50;;;;;;;1.90;65.31;100998.42;213189;1274;140746;-75
2022/03/13 07:26:59;;;;;;;81.50;40.30;;;;;;;3.97;64.11;100997.64;215080;1274;139839;-76
2022/03/13 07:32:03;;;;;;;67.90;36.30;;;;;;;5.93;62.39;100994.45;214144;1274;139754;-71
2022/03/13 07:37:10;;;;;;;36.10;22.40;;;;;;;7.63;59.45;100993.67;214478;1274;140713;-75
2022/03/13 07:42:17;;;;;;;28.90;15.90;;;;;;;9.02;56.61;100991.48;215427;1274;141378;-73
2022/03/13 07:47:21;;;;;;;20.30;13.30;;;;;;;10.04;53.49;100982.29;215950;1274;142350;-73
2022/03/13 07:52:28;;;;;;;;;;;;;;;10.23;49.68;100988.18;216003;1274;140560;-76
2022/03/13 07:57:35;;;;;;;22.90;13.10;;;;;;;10.08;47.87;100987.27;214550;1274;128127;-71
2022/03/13 08:02:52;;;;;;;19.10;13.40;;;;;;;10.06;46.61;100987.17;213952;1274;141111;-73
2022/03/13 08:07:58;;;;;;;20.60;14.00;;;;;;;9.91;45.07;100986.05;215241;1274;140468;-77
2022/03/13 08:13:02;;;;;;;18.00;13.00;;;;;;;9.72;44.10;100984.19;213760;1274;141392;-73
2022/03/13 08:18:09;;;;;;;23.40;11.80;;;;;;;9.62;43.74;100987.10;214100;1274;140664;-74
2022/03/13 08:23:15;;;;;;;19.10;12.50;;;;;;;9.57;42.75;100988.95;214695;1274;141230;-77
2022/03/13 08:28:21;;;;;;;22.90;15.70;;;;;;;9.48;42.22;100984.13;213576;1276;140695;-79
2022/03/13 08:33:25;;;;;;;22.40;11.10;;;;;;;9.49;42.34;100987.35;214525;1274;141552;-79
2022/03/13 08:38:29;;;;;;;22.20;12.80;;;;;;;9.51;41.35;100985.85;214884;1274;140412;-71
2022/03/13 08:43:33;;;;;;;19.50;11.90;;;;;;;9.21;39.91;100987.48;214242;1274;140019;-79
2022/03/13 08:48:39;;;;;;;17.70;12.00;;;;;;;9.16;39.72;100988.98;213536;1274;140679;-77
2022/03/13 08:53:44;;;;;;;15.50;10.00;;;;;;;9.11;39.02;100990.17;213174;1274;139855;-77
2022/03/13 08:58:49;;;;;;;20.10;13.20;;;;;;;9.15;38.95;100988.07;213470;1274;140678;-78
2022/03/13 09:03:54;;;;;;;16.80;10.20;;;;;;;9.14;38.64;100989.08;213333;1274;140355;-78
2022/03/13 09:09:00;;;;;;;21.00;12.40;;;;;;;9.37;38.60;100980.92;213599;1274;141033;-77
2022/03/13 09:14:05;;;;;;;19.10;11.00;;;;;;;9.58;38.22;100980.19;213232;1274;140181;-71
2022/03/13 09:19:09;;;;;;;20.60;11.80;;;;;;;9.65;37.28;100981.05;214906;1273;208822;-71
2022/03/13 09:24:13;;;;;;;19.50;10.80;;;;;;;9.63;36.35;100978.25;213362;1274;141395;-78
2022/03/13 09:29:19;;;;;;;17.90;11.50;;;;;;;9.59;36.13;100980.11;214052;1274;140707;-77
2022/03/13 09:34:24;;;;;;;16.70;10.80;;;;;;;9.71;36.08;100980.77;214153;1274;140810;-75
2022/03/13 09:39:29;;;;;;;23.80;13.90;;;;;;;9.81;35.71;100980.41;216083;1274;141801;-80
2022/03/13 09:44:34;;;;;;;21.90;13.00;;;;;;;9.91;34.84;100980.49;215255;1274;152022;-79
2022/03/13 09:49:41;;;;;;;12.50;9.70;;;;;;;10.02;34.62;100979.51;215214;1274;141968;-78
2022/03/13 09:54:49;;;;;;;15.80;9.60;;;;;;;10.16;34.10;100982.20;213246;1274;142591;-76
2022/03/13 09:59:53;;;;;;;27.50;10.10;;;;;;;10.29;34.21;100980.30;214436;1274;142029;-77
2022/03/13 10:04:57;;;;;;;22.90;12.30;;;;;;;10.37;33.30;100981.46;216242;1274;140301;-81
2022/03/13 10:10:13;;;;;;;14.20;9.60;;;;;;;10.39;32.67;100979.28;214933;1274;141683;-73
2022/03/13 10:15:18;;;;;;;17.30;9.80;;;;;;;10.40;32.31;100972.03;214373;1274;141151;-74
2022/03/13 10:20:27;;;;;;;24.70;12.60;;;;;;;10.55;32.21;100968.30;215769;1274;141388;-73
2022/03/13 10:25:34;;;;;;;16.10;10.00;;;;;;;10.62;31.71;100968.40;213353;1274;142580;-74
2022/03/13 10:30:38;;;;;;;20.00;10.00;;;;;;;10.63;31.26;100962.29;215062;1274;141735;-73
2022/03/13 10:35:44;;;;;;;23.60;11.50;;;;;;;10.61;30.80;100956.09;215089;1274;140365;-73
2022/03/13 10:40:57;;;;;;;15.70;10.00;;;;;;;10.67;30.84;100955.73;214471;1274;159504;-73
2022/03/13 10:46:04;;;;;;;16.20;10.90;;;;;;;10.80;30.60;100943.19;213914;1274;142957;-73
2022/03/13 10:51:12;;;;;;;33.90;15.20;;;;;;;10.93;30.63;100947.38;213454;1274;141451;-74
2022/03/13 10:56:16;;;;;;;17.00;10.20;;;;;;;10.90;30.35;100946.89;213690;1274;143630;-80
2022/03/13 11:01:25;;;;;;;19.10;10.50;;;;;;;11.00;30.47;100945.70;213861;1274;141547;-79
2022/03/13 11:06:30;;;;;;;11.30;7.00;;;;;;;11.08;30.26;100942.23;214723;1274;141260;-77
2022/03/13 11:11:34;;;;;;;11.40;7.90;;;;;;;11.25;30.12;100941.68;214794;1274;141131;-73
2022/03/13 11:16:39;;;;;;;10.40;7.80;;;;;;;11.29;29.81;100938.54;213365;1274;140537;-75
2022/03/13 11:21:44;;;;;;;9.80;5.80;;;;;;;11.19;29.13;100933.44;214192;1274;140059;-73
2022/03/13 11:26:50;;;;;;;8.50;6.00;;;;;;;11.13;28.88;100929.67;215090;1274;140680;-73
2022/03/13 11:31:55;;;;;;;14.70;7.80;;;;;;;11.17;28.78;100925.40;213940;1274;140495;-77
2022/03/13 11:37:00;;;;;;;15.50;9.70;;;;;;;11.16;28.59;100918.02;213553;1274;140480;-73
2022/03/13 11:42:05;;;;;;;12.90;6.80;;;;;;;11.23;28.33;100919.96;214390;1274;139845;-75
2022/03/13 11:47:23;;;;;;;12.10;7.90;;;;;;;11.17;28.00;100914.07;215160;1274;139900;-71
2022/03/13 11:52:29;;;;;;;14.00;9.50;;;;;;;11.25;28.33;100909.90;215038;1274;142171;-82
2022/03/13 11:57:45;;;;;;;15.80;8.30;;;;;;;11.21;28.36;100907.89;215696;1274;140814;-80
2022/03/13 12:02:51;;;;;;;15.80;9.20;;;;;;;11.14;27.85;100897.85;215983;1274;140233;-79
2022/03/13 12:08:12;;;;;;;11.40;7.80;;;;;;;11.10;28.58;100897.24;216040;1274;141129;-81
2022/03/13 12:13:23;;;;;;;11.40;7.60;;;;;;;11.14;28.71;100895.35;216043;1274;141010;-77
2022/03/13 12:18:28;;;;;;;10.30;7.70;;;;;;;11.12;28.91;100888.08;216101;1273;140614;-74
2022/03/13 12:23:34;;;;;;;8.90;6.70;;;;;;;11.06;28.41;100885.55;213966;1274;141229;-71
2022/03/13 12:28:39;;;;;;;11.00;7.50;;;;;;;11.01;28.41;100881.52;214429;1274;139882;-74
2022/03/13 12:33:48;;;;;;;16.00;8.90;;;;;;;10.95;28.60;100881.90;214817;1274;141833;-71
2022/03/13 12:38:53;;;;;;;12.30;8.90;;;;;;;10.87;27.94;100876.99;213275;1274;141570;-74
2022/03/13 12:44:07;;;;;;;10.60;8.30;;;;;;;10.84;28.53;100876.34;214225;1276;221771;-69
2022/03/13 12:49:17;;;;;;;11.10;7.30;;;;;;;10.78;28.14;100875.41;213597;1274;221241;-75
2022/03/13 12:54:21;;;;;;;20.10;11.70;;;;;;;10.73;28.23;100871.05;214115;1274;142146;-77
2022/03/13 12:59:29;;;;;;;22.40;10.50;;;;;;;10.72;28.48;100871.73;213580;1274;141197;-75
2022/03/13 13:04:35;;;;;;;15.20;8.00;;;;;;;10.73;28.46;100865.77;213015;1274;140863;-67
2022/03/13 13:09:42;;;;;;;12.50;8.90;;;;;;;10.76;28.48;100862.52;214164;1274;140160;-75
2022/03/13 13:14:49;;;;;;;12.10;8.50;;;;;;;10.78;28.46;100861.86;213312;1274;141602;-72
2022/03/13 13:20:04;;;;;;;10.80;7.80;;;;;;;10.69;28.00;100861.16;213283;1274;140146;-85
2022/03/13 13:25:12;;;;;;;9.10;6.50;;;;;;;10.78;28.64;100859.04;214961;1274;140211;-76
2022/03/13 13:30:30;;;;;;;13.30;10.00;;;;;;;10.83;28.18;100860.70;214194;1274;139392;-76
2022/03/13 13:35:38;;;;;;;11.90;8.40;;;;;;;10.87;28.44;100861.77;213577;1274;140641;-76
2022/03/13 13:40:44;;;;;;;14.30;8.80;;;;;;;10.84;28.55;100863.95;215278;1274;140158;-76
2022/03/13 13:45:50;;;;;;;14.10;9.70;;;;;;;10.81;28.68;100863.25;214027;1274;141546;-70
2022/03/13 13:51:19;;;;;;;13.30;8.10;;;;;;;10.83;28.76;100863.95;214999;1274;141287;-75
2022/03/13 13:56:26;;;;;;;23.50;10.80;;;;;;;10.81;28.87;100868.95;214011;1274;141746;-73
2022/03/13 14:01:34;;;;;;;17.80;11.60;;;;;;;10.74;28.86;100866.13;214202;1274;141405;-75
2022/03/13 14:06:43;;;;;;;13.00;9.60;;;;;;;10.74;29.47;100868.55;215725;1274;140773;-73
2022/03/13 14:11:48;;;;;;;20.80;12.50;;;;;;;10.74;29.40;100869.98;215936;1274;141389;-73
2022/03/13 14:16:53;;;;;;;17.20;11.20;;;;;;;10.71;29.68;100874.02;214798;1273;141760;-72
2022/03/13 14:21:58;;;;;;;19.10;11.70;;;;;;;10.62;29.13;100873.84;214605;1274;140938;-71
2022/03/13 14:27:02;;;;;;;20.20;13.90;;;;;;;10.52;29.46;100876.10;215413;1274;143430;-71
2022/03/13 14:32:06;;;;;;;24.60;16.00;;;;;;;10.47;30.15;100873.77;214588;1274;467399;-73
2022/03/13 14:37:11;;;;;;;18.10;11.90;;;;;;;10.38;30.57;100874.59;214190;1274;140347;-72
2022/03/13 14:42:36;;;;;;;17.10;11.20;;;;;;;10.28;30.71;100873.25;214118;1274;141247;-71
2022/03/13 14:47:40;;;;;;;20.20;12.60;;;;;;;10.19;31.29;100872.56;214475;1274;140262;-72
2022/03/13 14:53:04;;;;;;;36.60;23.00;;;;;;;10.05;31.21;100879.71;213992;1274;141144;-65
2022/03/13 14:58:09;;;;;;;25.70;18.10;;;;;;;9.89;31.51;100878.08;213110;1274;140940;-71
2022/03/13 15:03:13;;;;;;;22.20;14.70;;;;;;;9.77;31.94;100878.52;214060;1274;141290;-77
2022/03/13 15:08:18;;;;;;;20.50;15.00;;;;;;;9.63;32.24;100877.21;213964;1273;140755;-72
2022/03/13 15:13:23;;;;;;;26.20;14.00;;;;;;;9.48;32.38;100879.02;213171;1274;140653;-71
2022/03/13 15:18:27;;;;;;;25.30;16.40;;;;;;;9.35;32.64;100885.27;213856;1274;140148;-73
2022/03/13 15:23:31;;;;;;;21.40;14.00;;;;;;;9.21;32.95;100891.26;214727;1274;140083;-74
2022/03/13 15:28:36;;;;;;;25.30;16.70;;;;;;;9.10;33.04;100889.66;213817;1274;140780;-76
2022/03/13 15:33:48;;;;;;;23.90;15.70;;;;;;;9.01;33.17;100891.77;213479;1274;141582;-78
2022/03/13 15:38:59;;;;;;;24.10;16.80;;;;;;;8.85;33.43;100885.09;214588;1274;139710;-73
2022/03/13 15:44:03;;;;;;;29.80;18.50;;;;;;;8.71;33.75;100890.48;214023;1274;141601;-73
2022/03/13 15:49:07;;;;;;;28.50;18.00;;;;;;;8.57;34.26;100889.73;215139;1274;140120;-66
2022/03/13 15:54:12;;;;;;;27.20;17.20;;;;;;;8.46;34.46;100887.85;214243;1274;141892;-68
2022/03/13 15:59:18;;;;;;;27.00;19.40;;;;;;;8.32;34.59;100886.45;214909;1274;143285;-68
2022/03/13 16:04:22;;;;;;;25.10;18.70;;;;;;;8.19;34.73;100888.34;214259;1274;140692;-68
2022/03/13 16:09:27;;;;;;;31.10;20.70;;;;;;;8.03;35.08;100892.66;214943;1274;141439;-71
2022/03/13 16:14:34;;;;;;;24.30;17.90;;;;;;;7.84;35.79;100900.79;215911;1274;141127;-69
2022/03/13 16:19:38;;;;;;;36.60;20.60;;;;;;;7.69;35.72;100907.80;215998;1274;141943;-69
2022/03/13 16:24:43;;;;;;;31.10;21.40;;;;;;;7.55;36.12;100908.63;215402;1274;140381;-68
2022/03/13 16:29:49;;;;;;;44.70;28.00;;;;;;;7.42;36.47;100912.34;215806;1274;141213;-68
2022/03/13 16:34:53;;;;;;;58.60;32.20;;;;;;;7.26;36.71;100912.67;215880;1274;140491;-69
2022/03/13 16:39:57;;;;;;;38.20;27.30;;;;;;;7.09;36.82;100913.66;215570;1274;140142;-67
2022/03/13 16:45:01;;;;;;;29.10;18.90;;;;;;;6.88;37.51;100912.61;214067;1274;140834;-70
2022/03/13 16:50:07;;;;;;;29.00;20.50;;;;;;;6.69;37.75;100916.55;215357;1272;140721;-72
2022/03/13 16:55:11;;;;;;;34.90;23.40;;;;;;;6.47;38.06;100915.67;214863;1274;140276;-68
2022/03/13 17:00:16;;;;;;;36.90;22.90;;;;;;;6.27;38.49;100919.50;214191;1274;140715;-69
2022/03/13 17:05:23;;;;;;;35.80;23.00;;;;;;;6.04;38.95;100925.73;213069;1274;140665;-69
2022/03/13 17:10:29;;;;;;;40.80;22.70;;;;;;;5.83;39.36;100928.16;213167;1274;141231;-69
2022/03/13 17:15:34;;;;;;;45.60;26.30;;;;;;;5.63;39.84;100937.29;214556;1274;140657;-73
2022/03/13 17:20:38;;;;;;;40.30;24.40;;;;;;;5.47;40.14;100941.60;213210;1274;140298;-70
2022/03/13 17:25:43;;;;;;;38.20;21.40;;;;;;;5.26;40.71;100942.84;214849;1274;140645;-70
2022/03/13 17:30:46;;;;;;;40.00;26.90;;;;;;;5.01;41.37;100944.59;214020;1274;141183;-74
2022/03/13 17:35:50;;;;;;;67.30;24.40;;;;;;;4.80;41.91;100947.09;214400;1274;145802;-70
2022/03/13 17:40:54;;;;;;;38.50;22.70;;;;;;;4.52;42.14;100951.52;214248;1274;142420;-69
2022/03/13 17:45:59;;;;;;;32.30;21.50;;;;;;;4.23;42.75;100952.09;214034;1274;141542;-69
2022/03/13 17:51:04;;;;;;;50.90;32.00;;;;;;;4.02;43.06;100959.25;212994;1274;141773;-67
2022/03/13 17:56:09;;;;;;;50.40;30.30;;;;;;;3.83;43.62;100965.15;215438;1272;141724;-68
2022/03/13 18:01:13;;;;;;;53.40;31.50;;;;;;;3.66;44.01;100968.63;214223;1274;142252;-73
2022/03/13 18:06:23;;;;;;;55.30;31.30;;;;;;;3.49;44.64;100969.88;215225;1274;140835;-69
2022/03/13 18:11:31;;;;;;;60.70;35.40;;;;;;;3.28;45.14;100973.81;214990;1274;140540;-70
2022/03/13 18:16:35;;;;;;;60.50;34.90;;;;;;;3.09;45.58;100975.95;215949;1274;140893;-69
2022/03/13 18:21:41;;;;;;;61.50;35.90;;;;;;;3.00;46.11;100981.23;215887;1274;139760;-71
2022/03/13 18:26:45;;;;;;;48.30;30.30;;;;;;;2.97;46.35;100983.15;215920;1274;164145;-73
2022/03/13 18:31:50;;;;;;;51.50;30.40;;;;;;;2.85;46.56;100982.64;214707;1274;141295;-70
2022/03/13 18:37:00;;;;;;;60.10;34.40;;;;;;;2.67;46.89;100986.23;216162;1274;141320;-68
2022/03/13 18:42:07;;;;;;;61.70;36.60;;;;;;;2.57;47.44;100992.64;215926;1274;202587;-68
2022/03/13 18:47:13;;;;;;;54.50;32.80;;;;;;;2.54;47.93;100997.00;215658;1274;142124;-69
2022/03/13 18:52:18;;;;;;;67.40;36.90;;;;;;;2.48;48.01;101000.34;215687;1274;141612;-72
2022/03/13 18:57:22;;;;;;;68.00;38.80;;;;;;;2.41;48.07;101001.99;214650;1274;140180;-70
2022/03/13 19:02:26;;;;;;;73.90;41.00;;;;;;;2.29;48.48;100997.29;214338;1274;140882;-68
2022/03/13 19:07:32;;;;;;;76.20;41.40;;;;;;;2.13;48.46;100999.40;215660;1274;142000;-72
2022/03/13 19:12:36;;;;;;;84.60;43.30;;;;;;;2.07;48.91;100999.84;213107;1274;141735;-68
2022/03/13 19:17:42;;;;;;;65.50;39.00;;;;;;;1.99;48.98;100999.19;214563;1274;141215;-68
2022/03/13 19:22:46;;;;;;;78.20;44.20;;;;;;;1.88;48.97;101004.33;214048;1274;140214;-69
2022/03/13 19:27:57;;;;;;;102.70;51.30;;;;;;;1.80;49.59;101004.80;214003;1274;140016;-68
2022/03/13 19:33:02;;;;;;;71.20;37.20;;;;;;;1.80;49.72;101006.33;213439;1274;141055;-69
2022/03/13 19:38:07;;;;;;;50.70;26.80;;;;;;;1.84;50.28;101012.76;214441;1274;140115;-72
2022/03/13 19:43:11;;;;;;;37.70;22.70;;;;;;;2.00;51.17;101018.23;214149;1274;139868;-69
2022/03/13 19:48:16;;;;;;;24.00;17.30;;;;;;;2.29;51.63;101017.52;214364;1274;140977;-72
2022/03/13 19:53:20;;;;;;;27.40;17.30;;;;;;;2.54;51.82;101016.25;214554;1274;142574;-72
2022/03/13 19:58:25;;;;;;;28.10;19.00;;;;;;;2.71;51.58;101019.54;214211;1274;141979;-76
2022/03/13 20:03:30;;;;;;;37.10;20.80;;;;;;;2.74;51.55;101014.33;213568;1274;142895;-70
2022/03/13 20:08:36;;;;;;;29.20;18.50;;;;;;;2.75;51.73;101018.36;213888;1274;140763;-69
2022/03/13 20:13:40;;;;;;;36.40;20.90;;;;;;;2.73;51.83;101020.30;214923;1273;140195;-74
2022/03/13 20:18:45;;;;;;;29.40;16.00;;;;;;;2.68;51.97;101019.98;213528;1274;141014;-70
2022/03/13 20:23:49;;;;;;;35.80;18.10;;;;;;;2.66;52.30;101024.37;214842;1274;141279;-64
2022/03/13 20:28:54;;;;;;;34.40;18.80;;;;;;;2.62;52.44;101031.23;213513;1274;141877;-75
2022/03/13 20:33:58;;;;;;;25.10;15.10;;;;;;;2.62;52.47;101039.01;216237;1274;142231;-76
2022/03/13 20:39:05;;;;;;;27.20;14.50;;;;;;;2.58;52.61;101038.64;216176;1274;141714;-74
2022/03/13 20:44:11;;;;;;;33.70;16.30;;;;;;;2.55;52.75;101040.77;216167;1274;141693;-74
2022/03/13 20:49:17;;;;;;;33.50;16.00;;;;;;;2.51;52.78;101046.53;214280;1274;141096;-72
2022/03/13 20:54:23;;;;;;;31.40;17.10;;;;;;;2.45;53.19;101050.39;215770;1274;141271;-72
2022/03/13 20:59:27;;;;;;;20.60;13.70;;;;;;;2.38;53.38;101049.48;213440;1274;140729;-72
2022/03/13 21:04:30;;;;;;;25.60;15.60;;;;;;;2.30;53.64;101051.91;214882;1274;141314;-72
2022/03/13 21:09:34;;;;;;;28.60;15.50;;;;;;;2.23;53.75;101056.46;214272;1274;140512;-74
2022/03/13 21:14:38;;;;;;;32.20;18.20;;;;;;;2.16;54.19;101057.70;214003;1275;141899;-71
2022/03/13 21:19:43;;;;;;;28.60;15.80;;;;;;;2.09;54.48;101054.60;214095;1274;141192;-67
2022/03/13 21:24:47;;;;;;;26.20;14.50;;;;;;;2.02;54.98;101064.02;213546;1274;140531;-68
2022/03/13 21:29:51;;;;;;;26.80;15.60;;;;;;;1.93;54.88;101059.43;214301;1274;140270;-69
2022/03/13 21:34:57;;;;;;;28.50;15.10;;;;;;;1.85;55.18;101066.89;214272;1274;140672;-68
2022/03/13 21:40:04;;;;;;;29.20;18.30;;;;;;;1.74;55.18;101066.18;213592;1274;141876;-64
2022/03/13 21:45:11;;;;;;;29.00;15.90;;;;;;;1.66;55.73;101065.27;214549;1274;140387;-71
2022/03/13 21:50:16;;;;;;;32.30;18.70;;;;;;;1.58;55.97;101060.80;214704;1274;140412;-69
2022/03/13 21:55:20;;;;;;;29.20;16.40;;;;;;;1.50;55.92;101058.09;215365;1274;139814;-72
2022/03/13 22:00:24;;;;;;;32.80;17.10;;;;;;;1.44;56.27;101051.98;214202;1274;140454;-71
2022/03/13 22:05:30;;;;;;;26.70;16.90;;;;;;;1.37;56.38;101050.57;215285;1274;140380;-72
2022/03/13 22:10:40;;;;;;;24.80;14.70;;;;;;;1.30;56.46;101045.41;214785;1274;141722;-71
2022/03/13 22:15:49;;;;;;;26.70;15.30;;;;;;;1.24;56.51;101045.92;213317;1274;139800;-66
2022/03/13 22:20:55;;;;;;;29.20;18.30;;;;;;;1.18;57.03;101050.21;214107;1274;140737;-69
2022/03/13 22:26:00;;;;;;;25.60;15.90;;;;;;;1.11;56.79;101051.64;214562;1274;140025;-69
2022/03/13 22:31:04;;;;;;;30.50;14.70;;;;;;;1.05;57.08;101052.99;215318;1274;141511;-70
2022/03/13 22:36:09;;;;;;;27.50;16.50;;;;;;;1.04;57.48;101052.45;213832;1274;140344;-68
2022/03/13 22:41:13;;;;;;;23.50;13.80;;;;;;;0.98;57.36;101050.63;216345;1274;140362;-70
2022/03/13 22:46:19;;;;;;;26.00;15.20;;;;;;;0.95;57.71;101046.17;215736;1274;141639;-69